createdAt,value
2022-08-31T00:00:32.541Z,19.00
2022-08-31T00:03:18.739Z,19.00
2022-08-31T00:05:47.445Z,19.00
2022-08-31T00:08:16.247Z,19.00
2022-08-31T00:10:46.498Z,19.00
2022-08-31T00:13:16.263Z,18.90
2022-08-31T00:15:47.532Z,18.90
2022-08-31T00:18:15.778Z,18.90
2022-08-31T00:20:44.958Z,18.90
2022-08-31T00:23:19.333Z,18.90
2022-08-31T00:25:49.366Z,18.90
2022-08-31T00:28:18.531Z,18.90
2022-08-31T00:30:48.574Z,18.80
2022-08-31T00:33:17.625Z,18.70
2022-08-31T00:35:46.297Z,18.70
2022-08-31T00:38:15.613Z,18.70
2022-08-31T00:40:46.881Z,18.70
2022-08-31T00:43:34.792Z,18.70
2022-08-31T00:46:05.024Z,18.70
2022-08-31T00:48:33.232Z,18.70
2022-08-31T00:51:02.158Z,18.70
2022-08-31T00:53:30.453Z,18.70
2022-08-31T00:55:59.624Z,18.70
2022-08-31T00:58:28.018Z,18.70
2022-08-31T01:00:56.470Z,18.60
2022-08-31T01:03:26.373Z,18.60
2022-08-31T01:05:54.901Z,18.60
2022-08-31T01:08:29.602Z,18.60
2022-08-31T01:11:00.559Z,18.50
2022-08-31T01:13:30.881Z,18.60
2022-08-31T01:16:04.037Z,18.50
2022-08-31T01:18:35.109Z,18.40
2022-08-31T01:21:13.838Z,18.30
2022-08-31T01:23:45.331Z,18.30
2022-08-31T01:26:18.808Z,18.30
2022-08-31T01:28:48.841Z,18.30
2022-08-31T01:31:23.238Z,18.20
2022-08-31T01:33:51.863Z,18.10
2022-08-31T01:36:21.775Z,18.10
2022-08-31T01:38:53.086Z,18.00
2022-08-31T01:41:23.777Z,17.90
2022-08-31T01:43:53.014Z,17.90
2022-08-31T01:46:22.125Z,17.90
2022-08-31T01:48:52.238Z,17.90
2022-08-31T01:51:22.629Z,17.90
2022-08-31T01:53:54.875Z,18.00
2022-08-31T01:56:25.419Z,18.00
2022-08-31T01:58:54.803Z,18.20
2022-08-31T02:01:49.149Z,18.20
2022-08-31T02:04:19.850Z,18.20
2022-08-31T02:06:50.965Z,18.20
2022-08-31T02:09:22.885Z,18.20
2022-08-31T02:11:51.633Z,18.10
2022-08-31T02:14:20.523Z,18.00
2022-08-31T02:16:50.155Z,18.00
2022-08-31T02:19:18.560Z,18.00
2022-08-31T02:21:46.961Z,18.10
2022-08-31T02:24:15.894Z,18.20
2022-08-31T02:26:45.503Z,18.10
2022-08-31T02:29:14.146Z,18.10
2022-08-31T02:31:42.508Z,18.10
2022-08-31T02:34:10.960Z,18.10
2022-08-31T02:36:39.254Z,18.00
2022-08-31T02:39:08.958Z,18.10
2022-08-31T02:41:37.236Z,18.00
2022-08-31T02:44:07.294Z,18.00
2022-08-31T02:46:35.888Z,17.80
2022-08-31T02:49:23.017Z,18.00
2022-08-31T02:51:55.107Z,17.80
2022-08-31T02:54:23.579Z,17.90
2022-08-31T02:56:53.306Z,17.80
2022-08-31T02:59:23.009Z,17.80
2022-08-31T03:01:52.907Z,17.60
2022-08-31T03:04:21.354Z,17.60
2022-08-31T03:06:50.017Z,17.50
2022-08-31T03:09:19.482Z,17.50
2022-08-31T03:11:49.168Z,17.40
2022-08-31T03:14:17.503Z,17.30
2022-08-31T03:16:49.762Z,17.30
2022-08-31T03:19:21.777Z,17.20
2022-08-31T03:21:54.670Z,17.10
2022-08-31T03:24:27.181Z,17.10
2022-08-31T03:26:56.185Z,17.10
2022-08-31T03:29:24.529Z,17.10
2022-08-31T03:31:56.875Z,17.10
2022-08-31T03:34:26.744Z,17.00
2022-08-31T03:36:55.029Z,17.00
2022-08-31T03:39:23.569Z,17.00
2022-08-31T03:41:51.936Z,17.00
2022-08-31T03:44:23.520Z,17.00
2022-08-31T03:46:56.396Z,17.00
2022-08-31T03:49:26.981Z,16.90
2022-08-31T03:52:18.602Z,16.90
2022-08-31T03:54:49.829Z,16.90
2022-08-31T03:57:18.700Z,16.90
2022-08-31T03:59:46.979Z,16.80
2022-08-31T04:02:41.094Z,16.90
2022-08-31T04:05:23.916Z,16.90
2022-08-31T04:08:12.759Z,16.80
2022-08-31T04:11:10.393Z,16.80
2022-08-31T04:13:59.165Z,16.70
2022-08-31T04:16:27.726Z,16.70
2022-08-31T04:19:09.347Z,16.70
2022-08-31T04:21:47.637Z,16.60
2022-08-31T04:26:22.797Z,16.60
2022-08-31T04:28:51.942Z,16.50
2022-08-31T04:31:22.812Z,16.50
2022-08-31T04:33:51.788Z,16.60
2022-08-31T04:36:22.453Z,16.60
2022-08-31T04:38:56.240Z,16.50
2022-08-31T04:41:28.271Z,16.50
2022-08-31T04:43:58.778Z,16.60
2022-08-31T04:46:28.769Z,16.50
2022-08-31T04:48:56.959Z,16.40
2022-08-31T04:51:28.094Z,16.40
2022-08-31T04:53:56.779Z,16.30
2022-08-31T04:56:29.247Z,16.40
2022-08-31T04:58:59.149Z,16.40
2022-08-31T05:01:38.649Z,16.40
2022-08-31T05:04:33.845Z,16.40
2022-08-31T05:07:02.121Z,16.40
2022-08-31T05:09:30.263Z,16.50
2022-08-31T05:11:59.721Z,16.50
2022-08-31T05:14:27.826Z,16.40
2022-08-31T05:17:02.875Z,16.50
2022-08-31T05:19:36.909Z,16.50
2022-08-31T05:22:07.259Z,16.50
2022-08-31T05:24:38.812Z,16.50
2022-08-31T05:27:09.693Z,16.50
2022-08-31T05:29:37.797Z,16.50
2022-08-31T05:32:34.964Z,16.50
2022-08-31T05:35:07.790Z,16.50
2022-08-31T05:37:35.947Z,16.50
2022-08-31T05:40:05.149Z,16.60
2022-08-31T05:42:34.993Z,16.60
2022-08-31T05:45:04.082Z,16.60
2022-08-31T05:47:32.424Z,16.70
2022-08-31T05:50:00.542Z,16.70
2022-08-31T05:52:29.614Z,16.80
2022-08-31T05:54:57.654Z,16.80
2022-08-31T05:57:26.826Z,16.80
2022-08-31T05:59:58.765Z,16.90
2022-08-31T06:02:29.608Z,16.90
2022-08-31T06:04:59.099Z,16.90
2022-08-31T06:07:27.788Z,16.90
2022-08-31T06:09:59.659Z,17.00
2022-08-31T06:12:28.628Z,17.00
2022-08-31T06:14:58.060Z,17.00
2022-08-31T06:17:26.554Z,17.00
2022-08-31T06:19:54.937Z,17.00
2022-08-31T06:22:23.447Z,17.00
2022-08-31T06:24:52.725Z,17.00
2022-08-31T06:27:21.056Z,17.10
2022-08-31T06:29:50.866Z,17.10
2022-08-31T06:32:21.552Z,17.20
2022-08-31T06:34:56.060Z,17.20
2022-08-31T06:37:56.777Z,17.10
2022-08-31T06:40:46.656Z,17.20
2022-08-31T06:43:43.508Z,17.20
2022-08-31T06:46:23.704Z,17.20
2022-08-31T06:49:25.999Z,17.20
2022-08-31T06:51:54.083Z,17.30
2022-08-31T06:54:30.552Z,17.30
2022-08-31T06:57:27.770Z,17.30
2022-08-31T07:00:01.894Z,17.40
2022-08-31T07:02:45.462Z,17.40
2022-08-31T07:05:24.723Z,17.50
2022-08-31T07:07:55.135Z,17.60
2022-08-31T07:10:23.373Z,17.70
2022-08-31T07:12:51.552Z,17.70
2022-08-31T07:15:19.690Z,17.80
2022-08-31T07:17:49.759Z,17.80
2022-08-31T07:20:18.105Z,17.90
2022-08-31T07:22:47.789Z,17.90
2022-08-31T07:25:30.886Z,18.00
2022-08-31T07:27:59.423Z,18.10
2022-08-31T07:30:29.053Z,18.20
2022-08-31T07:33:06.995Z,18.30
2022-08-31T07:35:37.396Z,18.40
2022-08-31T07:38:33.139Z,18.60
2022-08-31T07:41:18.697Z,18.60
2022-08-31T07:43:48.113Z,18.70
2022-08-31T07:46:17.838Z,18.90
2022-08-31T07:48:46.178Z,19.00
2022-08-31T07:51:29.421Z,19.00
2022-08-31T07:54:24.057Z,19.20
2022-08-31T07:57:22.444Z,19.30
2022-08-31T07:59:55.834Z,19.50
2022-08-31T08:02:24.310Z,19.60
2022-08-31T08:04:53.786Z,19.80
2022-08-31T08:07:44.708Z,19.90
2022-08-31T08:10:52.363Z,19.90
2022-08-31T08:13:50.369Z,19.90
2022-08-31T08:16:38.788Z,19.90
2022-08-31T08:19:23.078Z,19.80
2022-08-31T08:21:51.504Z,19.90
2022-08-31T08:24:24.215Z,19.90
2022-08-31T08:27:20.330Z,20.00
2022-08-31T08:29:53.785Z,20.20
2022-08-31T08:32:31.450Z,20.20
2022-08-31T08:34:59.846Z,20.30
2022-08-31T08:37:47.809Z,20.10
2022-08-31T08:40:30.673Z,20.20
2022-08-31T08:43:02.851Z,20.40
2022-08-31T08:45:31.580Z,20.60
2022-08-31T08:48:01.457Z,20.70
2022-08-31T08:50:32.461Z,20.60
2022-08-31T08:53:03.649Z,20.70
2022-08-31T08:55:36.881Z,20.80
2022-08-31T08:58:10.379Z,20.80
2022-08-31T09:00:46.630Z,20.80
2022-08-31T09:03:25.021Z,20.90
2022-08-31T09:06:15.001Z,20.80
2022-08-31T09:09:34.692Z,20.80
2022-08-31T09:12:18.956Z,21.00
2022-08-31T09:15:04.527Z,21.20
2022-08-31T09:17:45.669Z,21.30
2022-08-31T09:20:16.866Z,21.20
2022-08-31T09:22:48.532Z,21.30
2022-08-31T09:25:20.241Z,21.30
2022-08-31T09:28:16.370Z,21.40
2022-08-31T09:30:52.572Z,21.70
2022-08-31T09:33:25.069Z,21.90
2022-08-31T09:35:56.818Z,21.50
2022-08-31T09:38:30.472Z,21.60
2022-08-31T09:40:59.558Z,21.80
2022-08-31T09:43:38.714Z,21.90
2022-08-31T09:46:13.261Z,21.80
2022-08-31T09:48:49.729Z,21.80
2022-08-31T09:51:24.461Z,22.00
2022-08-31T09:54:10.613Z,22.40
2022-08-31T09:56:56.106Z,22.60
2022-08-31T09:59:37.273Z,22.60
2022-08-31T10:02:11.301Z,22.50
2022-08-31T10:04:51.074Z,22.50
2022-08-31T10:07:34.278Z,22.60
2022-08-31T10:10:05.615Z,22.50
2022-08-31T10:12:43.930Z,22.50
2022-08-31T10:15:18.731Z,22.50
2022-08-31T10:17:56.098Z,22.60
2022-08-31T10:20:30.435Z,22.80
2022-08-31T10:23:08.799Z,22.80
2022-08-31T10:25:42.893Z,23.00
2022-08-31T10:28:15.412Z,23.10
2022-08-31T10:30:48.807Z,23.10
2022-08-31T10:33:21.453Z,23.10
2022-08-31T10:35:55.757Z,23.00
2022-08-31T10:38:30.377Z,23.20
2022-08-31T10:41:07.495Z,23.60
2022-08-31T10:43:40.606Z,23.60
2022-08-31T10:46:08.941Z,23.70
2022-08-31T10:48:50.919Z,23.70
2022-08-31T10:51:24.170Z,23.60
2022-08-31T10:54:07.773Z,23.60
2022-08-31T10:56:49.711Z,23.60
2022-08-31T10:59:25.951Z,23.90
2022-08-31T11:02:02.556Z,23.30
2022-08-31T11:04:51.536Z,23.30
2022-08-31T11:07:36.138Z,23.50
2022-08-31T11:10:22.183Z,23.50
2022-08-31T11:12:57.563Z,23.40
2022-08-31T11:15:45.385Z,23.30
2022-08-31T11:18:42.681Z,23.70
2022-08-31T11:21:36.568Z,23.80
2022-08-31T11:24:35.000Z,24.00
2022-08-31T11:27:11.671Z,23.80
2022-08-31T11:29:43.995Z,23.80
2022-08-31T11:32:20.686Z,24.00
2022-08-31T11:34:51.449Z,24.10
2022-08-31T11:37:55.801Z,24.00
2022-08-31T11:41:14.032Z,24.00
2022-08-31T11:43:52.131Z,23.90
2022-08-31T11:46:53.064Z,24.20
2022-08-31T11:49:41.198Z,24.10
2022-08-31T11:52:30.857Z,24.10
2022-08-31T11:55:24.004Z,24.10
2022-08-31T11:58:26.567Z,24.00
2022-08-31T12:00:59.212Z,24.20
2022-08-31T12:03:50.536Z,24.00
2022-08-31T12:07:07.794Z,23.90
2022-08-31T12:10:16.733Z,24.00
2022-08-31T12:13:36.369Z,24.10
2022-08-31T12:16:20.913Z,24.00
2022-08-31T12:18:59.732Z,24.10
2022-08-31T12:21:53.224Z,24.20
2022-08-31T12:24:34.113Z,24.00
2022-08-31T12:27:21.230Z,23.90
2022-08-31T12:29:49.880Z,24.10
2022-08-31T12:32:27.922Z,24.30
2022-08-31T12:35:09.513Z,24.40
2022-08-31T12:37:39.346Z,24.40
2022-08-31T12:40:20.951Z,24.50
2022-08-31T12:42:59.330Z,24.70
2022-08-31T12:46:05.865Z,24.80
2022-08-31T12:48:53.193Z,25.10
2022-08-31T12:51:35.190Z,25.10
2022-08-31T12:54:32.836Z,25.10
2022-08-31T12:57:08.444Z,24.90
2022-08-31T13:00:00.573Z,25.30
2022-08-31T13:02:33.029Z,25.50
2022-08-31T13:05:02.992Z,25.70
2022-08-31T13:07:33.435Z,25.60
2022-08-31T13:10:10.025Z,25.40
2022-08-31T13:12:38.729Z,25.00
2022-08-31T13:15:14.326Z,24.70
2022-08-31T13:17:42.769Z,24.70
2022-08-31T13:20:13.470Z,24.80
2022-08-31T13:22:42.771Z,25.20
2022-08-31T13:25:16.702Z,25.40
2022-08-31T13:27:50.058Z,25.70
2022-08-31T13:30:25.537Z,25.80
2022-08-31T13:32:54.804Z,25.60
2022-08-31T13:35:26.676Z,26.00
2022-08-31T13:38:03.813Z,26.00
2022-08-31T13:40:35.475Z,26.30
2022-08-31T13:43:05.424Z,26.00
2022-08-31T13:45:37.674Z,26.10
2022-08-31T13:48:10.726Z,26.50
2022-08-31T13:50:52.628Z,26.40
2022-08-31T13:53:42.412Z,26.10
2022-08-31T13:56:43.856Z,25.50
2022-08-31T13:59:34.746Z,25.60
2022-08-31T14:02:07.934Z,25.40
2022-08-31T14:05:00.455Z,25.20
2022-08-31T14:07:32.574Z,25.10
2022-08-31T14:10:03.648Z,25.00
2022-08-31T14:12:39.467Z,24.70
2022-08-31T14:15:35.414Z,24.80
2022-08-31T14:18:25.737Z,24.50
2022-08-31T14:21:22.681Z,24.50
2022-08-31T14:23:53.565Z,24.60
2022-08-31T14:26:26.095Z,24.80
2022-08-31T14:28:56.517Z,24.80
2022-08-31T14:31:27.606Z,24.70
2022-08-31T14:34:22.319Z,25.00
2022-08-31T14:36:54.380Z,25.10
2022-08-31T14:39:24.893Z,25.30
2022-08-31T14:41:54.641Z,25.40
2022-08-31T14:44:26.090Z,25.60
2022-08-31T14:46:54.408Z,25.60
2022-08-31T14:49:24.803Z,25.70
2022-08-31T14:51:52.862Z,25.80
2022-08-31T14:54:20.906Z,25.70
2022-08-31T14:56:51.948Z,25.50
2022-08-31T14:59:21.759Z,25.50
2022-08-31T15:01:50.851Z,25.50
2022-08-31T15:04:21.787Z,25.40
2022-08-31T15:06:54.996Z,25.10
2022-08-31T15:09:23.259Z,24.90
2022-08-31T15:11:51.433Z,25.00
2022-08-31T15:14:19.517Z,25.00
2022-08-31T15:16:50.791Z,25.10
2022-08-31T15:19:19.060Z,25.00
2022-08-31T15:21:52.781Z,25.20
2022-08-31T15:24:32.171Z,25.30
2022-08-31T15:27:02.164Z,25.40
2022-08-31T15:29:30.890Z,25.30
2022-08-31T15:31:59.850Z,25.40
2022-08-31T15:34:31.033Z,25.50
2022-08-31T15:37:02.389Z,25.70
2022-08-31T15:39:35.602Z,25.50
2022-08-31T15:42:09.038Z,25.40
2022-08-31T15:44:37.567Z,25.20
2022-08-31T15:47:24.977Z,25.10
2022-08-31T15:49:53.243Z,25.20
2022-08-31T15:52:21.543Z,25.10
2022-08-31T15:54:51.715Z,25.00
2022-08-31T15:57:21.209Z,24.90
2022-08-31T15:59:50.065Z,24.80
2022-08-31T16:02:20.461Z,24.40
2022-08-31T16:04:50.605Z,24.20
2022-08-31T16:07:22.631Z,24.10
2022-08-31T16:09:52.074Z,24.00
2022-08-31T16:12:21.201Z,24.00
2022-08-31T16:14:51.338Z,23.90
2022-08-31T16:17:20.068Z,23.80
2022-08-31T16:19:48.881Z,23.70
2022-08-31T16:22:17.937Z,23.70
2022-08-31T16:24:51.003Z,23.80
2022-08-31T16:27:22.144Z,23.80
2022-08-31T16:29:51.727Z,23.70
2022-08-31T16:32:20.542Z,23.70
2022-08-31T16:34:49.093Z,23.70
2022-08-31T16:37:17.230Z,23.70
2022-08-31T16:39:47.775Z,23.60
2022-08-31T16:42:17.584Z,23.50
2022-08-31T16:44:48.541Z,23.40
2022-08-31T16:47:18.657Z,23.20
2022-08-31T16:49:46.838Z,23.20
2022-08-31T16:52:18.158Z,23.00
2022-08-31T16:54:49.082Z,23.10
2022-08-31T16:57:18.903Z,23.00
2022-08-31T16:59:49.382Z,22.90
2022-08-31T17:02:18.966Z,22.90
2022-08-31T17:04:52.454Z,22.80
2022-08-31T17:07:23.294Z,22.70
2022-08-31T17:09:52.392Z,22.80
2022-08-31T17:12:26.088Z,22.80
2022-08-31T17:14:55.957Z,22.70
2022-08-31T17:17:26.529Z,22.80
2022-08-31T17:19:56.966Z,22.70
2022-08-31T17:22:32.428Z,22.60
2022-08-31T17:25:04.695Z,22.50
2022-08-31T17:27:34.628Z,22.30
2022-08-31T17:30:07.888Z,22.20
2022-08-31T17:32:39.396Z,22.10
2022-08-31T17:35:17.470Z,22.10
2022-08-31T17:37:45.854Z,22.00
2022-08-31T17:40:16.695Z,21.90
2022-08-31T17:42:45.451Z,21.80
2022-08-31T17:45:15.598Z,21.90
2022-08-31T17:47:43.854Z,21.70
2022-08-31T17:50:13.983Z,21.70
2022-08-31T17:52:42.170Z,21.50
2022-08-31T17:55:10.548Z,21.50
2022-08-31T17:57:39.695Z,21.40
2022-08-31T18:00:08.949Z,21.40
2022-08-31T18:02:39.057Z,21.30
2022-08-31T18:05:11.777Z,21.30
2022-08-31T18:07:41.229Z,21.20
2022-08-31T18:10:10.813Z,21.00
2022-08-31T18:12:41.204Z,20.70
2022-08-31T18:15:11.127Z,20.40
2022-08-31T18:17:40.890Z,20.10
2022-08-31T18:20:11.842Z,19.90
2022-08-31T18:22:40.239Z,19.80
2022-08-31T18:25:08.989Z,19.70
2022-08-31T18:27:37.086Z,19.60
2022-08-31T18:30:06.264Z,19.50
2022-08-31T18:32:36.315Z,19.40
2022-08-31T18:35:17.594Z,19.40
2022-08-31T18:37:45.893Z,19.30
2022-08-31T18:40:31.731Z,19.30
2022-08-31T18:43:32.061Z,19.20
2022-08-31T18:46:00.968Z,19.20
2022-08-31T18:48:29.096Z,19.10
2022-08-31T18:50:59.311Z,19.00
2022-08-31T18:53:30.235Z,18.80
2022-08-31T18:56:05.443Z,18.80
2022-08-31T18:58:34.036Z,18.70
2022-08-31T19:01:02.316Z,18.70
2022-08-31T19:03:30.555Z,18.60
2022-08-31T19:06:00.332Z,18.50
2022-08-31T19:08:29.970Z,18.50
2022-08-31T19:10:58.918Z,18.40
2022-08-31T19:13:31.601Z,18.30
2022-08-31T19:16:10.718Z,18.20
2022-08-31T19:18:44.015Z,18.10
2022-08-31T19:21:19.302Z,17.90
2022-08-31T19:23:48.161Z,17.80
2022-08-31T19:26:22.382Z,17.70
2022-08-31T19:28:50.934Z,17.60
2022-08-31T19:31:20.967Z,17.50
2022-08-31T19:33:56.070Z,17.40
2022-08-31T19:36:27.235Z,17.40
2022-08-31T19:38:56.474Z,17.40
2022-08-31T19:41:26.590Z,17.30
2022-08-31T19:44:07.840Z,17.30
2022-08-31T19:46:37.963Z,17.20
2022-08-31T19:49:10.937Z,17.20
2022-08-31T19:51:43.237Z,17.20
2022-08-31T19:54:12.767Z,17.20
2022-08-31T19:56:43.689Z,17.10
2022-08-31T19:59:18.330Z,17.10
2022-08-31T20:01:48.552Z,17.10
2022-08-31T20:04:19.236Z,17.00
2022-08-31T20:06:52.174Z,17.10
2022-08-31T20:09:23.223Z,17.00
2022-08-31T20:11:52.767Z,17.00
2022-08-31T20:14:22.045Z,16.90
2022-08-31T20:16:51.214Z,16.90
2022-08-31T20:19:24.566Z,16.80
2022-08-31T20:21:55.862Z,16.80
2022-08-31T20:24:28.049Z,16.70
2022-08-31T20:26:59.876Z,16.70
2022-08-31T20:29:28.039Z,16.60
2022-08-31T20:31:56.828Z,16.50
2022-08-31T20:34:27.949Z,16.40
2022-08-31T20:37:01.170Z,16.30
2022-08-31T20:39:31.569Z,16.10
2022-08-31T20:42:01.980Z,16.10
2022-08-31T20:44:33.671Z,16.00
2022-08-31T20:47:20.465Z,16.00
2022-08-31T20:49:54.539Z,15.90
2022-08-31T20:52:28.111Z,15.80
2022-08-31T20:55:02.179Z,15.70
2022-08-31T20:57:31.673Z,15.70
2022-08-31T21:00:02.437Z,15.60
2022-08-31T21:02:31.692Z,15.60
2022-08-31T21:05:15.183Z,15.50
2022-08-31T21:07:49.873Z,15.50
2022-08-31T21:10:19.017Z,15.40
2022-08-31T21:12:49.655Z,15.40
2022-08-31T21:15:22.360Z,15.30
2022-08-31T21:17:56.996Z,15.30
2022-08-31T21:20:26.316Z,15.20
2022-08-31T21:22:55.759Z,15.10
2022-08-31T21:25:23.838Z,15.10
2022-08-31T21:27:52.850Z,15.00
2022-08-31T21:30:21.145Z,15.00
2022-08-31T21:32:49.373Z,15.00
2022-08-31T21:35:19.242Z,15.00
2022-08-31T21:37:47.636Z,14.90
2022-08-31T21:40:18.310Z,14.80
2022-08-31T21:42:46.472Z,14.80
2022-08-31T21:45:14.719Z,14.80
2022-08-31T21:47:43.300Z,14.70
2022-08-31T21:50:11.616Z,14.70
2022-08-31T21:52:40.042Z,14.60
2022-08-31T21:55:13.472Z,14.50
2022-08-31T21:57:43.646Z,14.40
2022-08-31T22:00:22.191Z,14.40
2022-08-31T22:02:50.794Z,14.30
2022-08-31T22:05:19.093Z,14.30
2022-08-31T22:07:47.164Z,14.30
2022-08-31T22:10:15.196Z,14.20
2022-08-31T22:12:44.613Z,14.10
2022-08-31T22:15:16.634Z,14.10
2022-08-31T22:18:04.757Z,14.00
2022-08-31T22:20:33.805Z,13.90
2022-08-31T22:23:02.775Z,13.80
2022-08-31T22:25:33.420Z,13.80
2022-08-31T22:28:05.945Z,13.70
2022-08-31T22:30:37.074Z,13.70
2022-08-31T22:33:05.882Z,13.70
2022-08-31T22:35:39.823Z,13.60
2022-08-31T22:38:09.135Z,13.50
2022-08-31T22:40:39.425Z,13.50
2022-08-31T22:43:09.330Z,13.40
2022-08-31T22:45:47.611Z,13.40
2022-08-31T22:48:17.321Z,13.30
2022-08-31T22:50:45.429Z,13.20
2022-08-31T22:53:14.246Z,13.20
2022-08-31T22:55:43.003Z,13.10
2022-08-31T22:58:13.649Z,13.00
2022-08-31T23:00:45.366Z,13.00
2022-08-31T23:03:14.812Z,13.00
2022-08-31T23:05:43.617Z,12.90
2022-08-31T23:08:12.373Z,12.90
2022-08-31T23:10:40.606Z,12.70
2022-08-31T23:13:08.921Z,12.70
2022-08-31T23:15:40.036Z,12.60
2022-08-31T23:18:10.318Z,12.60
2022-08-31T23:20:41.561Z,12.60
2022-08-31T23:23:10.044Z,12.50
2022-08-31T23:25:41.754Z,12.40
2022-08-31T23:28:09.858Z,12.50
2022-08-31T23:30:43.715Z,12.50
2022-08-31T23:33:11.781Z,12.50
2022-08-31T23:35:40.592Z,12.40
2022-08-31T23:38:08.626Z,12.50
2022-08-31T23:40:36.713Z,12.30
2022-08-31T23:43:07.977Z,12.30
2022-08-31T23:45:40.850Z,12.20
2022-08-31T23:48:09.425Z,12.20
2022-08-31T23:50:37.553Z,12.10
2022-08-31T23:53:13.565Z,12.10
2022-08-31T23:55:44.177Z,12.00
2022-08-31T23:58:14.001Z,12.00
